Time;durP1;ratioP1;P1;durP2;ratioP2;P2;SDS_P1;SDS_P2;PMS_P1;PMS_P2;Temp;Humidity;BMP_temperature;BMP_pressure;BME280_temperature;BME280_humidity;BME280_pressure;Samples;Min_cycle;Max_cycle;Signal;HPM_P1;HPM_P2
2022/05/13 00:02:08;;;;;;;5.57;1.48;;;;;;;12.18;74.83;101618.03;4999864;28;20486;-67
2022/05/13 00:04:34;;;;;;;5.50;1.40;;;;;;;12.19;74.73;101614.47;4996785;28;20113;-68
2022/05/13 00:06:59;;;;;;;7.95;2.47;;;;;;;12.21;74.43;101611.75;4999695;28;20121;-68
2022/05/13 00:09:56;;;;;;;6.25;1.80;;;;;;;12.16;74.53;101619.97;4999660;28;20113;-67
2022/05/13 00:12:11;;;;;;;6.78;1.63;;;;;;;12.04;74.79;101619.34;5000242;28;20117;-67
2022/05/13 00:14:37;;;;;;;5.50;1.73;;;;;;;11.97;75.28;101612.28;5001922;28;20046;-67
2022/05/13 00:17:03;;;;;;;3.70;1.50;;;;;;;11.87;75.34;101613.13;5001693;28;20034;-68
2022/05/13 00:19:28;;;;;;;5.95;1.80;;;;;;;11.78;75.66;101616.56;5003041;28;20514;-67
2022/05/13 00:21:54;;;;;;;9.23;1.50;;;;;;;11.78;75.45;101615.78;5004645;28;20092;-67
2022/05/13 00:24:19;;;;;;;6.15;2.15;;;;;;;11.80;75.68;101619.84;5001186;28;20042;-68
2022/05/13 00:26:44;;;;;;;4.35;1.58;;;;;;;11.81;75.35;101618.91;5003242;28;20041;-67
2022/05/13 00:29:10;;;;;;;5.72;1.50;;;;;;;11.82;74.89;101612.72;5004226;28;20118;-68
2022/05/13 00:31:36;;;;;;;5.82;1.60;;;;;;;11.82;74.50;101614.50;5000429;28;20083;-68
2022/05/13 00:34:02;;;;;;;7.90;1.77;;;;;;;11.81;74.28;101605.06;5003097;28;20381;-68
2022/05/13 00:36:28;;;;;;;5.53;1.45;;;;;;;11.80;74.11;101601.66;5003635;28;20033;-68
2022/05/13 00:38:53;;;;;;;4.80;1.60;;;;;;;11.73;74.57;101598.00;4984275;28;20030;-67
2022/05/13 00:41:19;;;;;;;6.30;1.77;;;;;;;11.64;74.73;101594.50;5004144;28;20030;-67
2022/05/13 00:43:51;;;;;;;4.80;1.65;;;;;;;11.59;75.21;101594.09;4997238;28;20161;-67
2022/05/13 00:46:18;;;;;;;3.53;1.70;;;;;;;11.55;74.91;101589.34;5000633;28;20052;-68
2022/05/13 00:48:44;;;;;;;6.15;1.50;;;;;;;11.54;75.07;101592.91;5002298;28;20145;-67
2022/05/13 00:51:12;;;;;;;5.13;1.80;;;;;;;11.54;74.79;101595.50;5018767;28;20087;-68
2022/05/13 00:53:39;;;;;;;4.75;1.50;;;;;;;11.54;74.77;101593.72;5001045;28;20048;-68
2022/05/13 00:56:05;;;;;;;5.72;2.00;;;;;;;11.55;74.56;101586.75;5003341;28;21257;-67
2022/05/13 00:58:33;;;;;;;4.70;1.77;;;;;;;11.54;74.54;101587.69;5004686;28;20044;-67
2022/05/13 01:00:58;;;;;;;4.00;1.65;;;;;;;11.50;74.67;101590.56;5001941;28;20037;-67
2022/05/13 01:03:24;;;;;;;9.40;1.67;;;;;;;11.47;74.99;101592.63;5003137;28;20021;-68
2022/05/13 01:05:54;;;;;;;4.55;1.52;;;;;;;11.44;74.92;101596.34;4999970;28;20042;-68
2022/05/13 01:08:20;;;;;;;5.63;1.75;;;;;;;11.40;74.88;101589.00;5002593;28;20033;-67
2022/05/13 01:10:46;;;;;;;6.50;1.48;;;;;;;11.39;74.53;101595.94;5000728;28;20057;-66
2022/05/13 01:13:18;;;;;;;3.88;1.70;;;;;;;11.36;74.46;101592.81;5015690;28;20050;-68
2022/05/13 01:15:43;;;;;;;6.22;1.42;;;;;;;11.29;74.32;101588.19;4999707;28;20022;-67
2022/05/13 01:18:10;;;;;;;4.05;1.10;;;;;;;11.22;74.72;101586.31;5002618;28;20048;-67
2022/05/13 01:20:46;;;;;;;6.03;1.45;;;;;;;11.17;74.96;101594.53;5002155;28;20488;-67
2022/05/13 01:23:21;;;;;;;6.63;2.08;;;;;;;11.16;74.67;101587.69;5018145;28;20044;-67
2022/05/13 01:25:49;;;;;;;7.43;2.25;;;;;;;11.14;74.98;101593.97;4998307;28;20514;-67
2022/05/13 01:28:22;;;;;;;3.70;1.83;;;;;;;11.07;74.98;101599.72;5002977;28;20042;-68
2022/05/13 01:30:52;;;;;;;5.13;1.77;;;;;;;11.03;75.02;101594.94;5001512;28;20117;-67
2022/05/13 01:33:18;;;;;;;7.97;1.75;;;;;;;11.00;75.08;101596.06;5004406;28;20050;-67
2022/05/13 01:35:47;;;;;;;5.97;1.75;;;;;;;10.98;74.91;101599.72;5001566;28;20101;-67
2022/05/13 01:38:14;;;;;;;5.25;1.60;;;;;;;10.93;75.44;101599.34;5003086;28;20065;-68
2022/05/13 01:40:40;;;;;;;4.78;1.45;;;;;;;10.84;75.54;101596.63;5000585;28;20037;-66
2022/05/13 01:43:07;;;;;;;6.47;1.42;;;;;;;10.80;75.59;101599.63;5018130;28;20034;-68
2022/05/13 01:45:33;;;;;;;5.97;1.25;;;;;;;10.78;75.93;101596.38;5000238;28;20309;-67
2022/05/13 01:47:59;;;;;;;6.57;1.50;;;;;;;10.73;75.97;101596.75;4999617;28;20038;-68
2022/05/13 01:50:26;;;;;;;6.45;1.63;;;;;;;10.65;76.36;101594.84;5003063;28;20041;-68
2022/05/13 01:52:54;;;;;;;3.08;1.30;;;;;;;10.63;76.15;101588.19;5001668;28;20033;-68
2022/05/13 01:55:20;;;;;;;5.70;1.75;;;;;;;10.61;76.21;101593.50;5002004;28;20041;-67
2022/05/13 01:57:45;;;;;;;3.22;1.83;;;;;;;10.58;76.43;101590.34;5000827;28;20040;-67
2022/05/13 02:00:11;;;;;;;3.40;1.60;;;;;;;10.55;76.42;101588.84;5002586;28;20033;-67
2022/05/13 02:05:24;;;;;;;8.80;2.10;;;;;;;10.56;76.24;101581.88;4996478;28;20064;-67
2022/05/13 02:07:50;;;;;;;7.40;1.95;;;;;;;10.56;76.13;101597.44;5001789;28;20148;-67
2022/05/13 02:10:16;;;;;;;8.10;2.30;;;;;;;10.54;75.76;101589.00;5016563;28;20187;-67
2022/05/13 02:12:42;;;;;;;8.13;3.47;;;;;;;10.52;76.06;101599.50;4997491;28;20038;-67
2022/05/13 02:15:08;;;;;;;7.25;2.20;;;;;;;10.55;75.62;101606.16;5002004;28;20400;-67
2022/05/13 02:17:33;;;;;;;9.05;3.00;;;;;;;10.44;75.95;101601.97;5002067;28;20164;-67
2022/05/13 02:19:59;;;;;;;5.43;2.40;;;;;;;10.42;75.67;101601.28;5000823;28;20435;-67
2022/05/13 02:22:24;;;;;;;7.20;2.30;;;;;;;10.40;76.17;101604.00;4999572;28;20472;-68
2022/05/13 02:24:50;;;;;;;10.45;2.45;;;;;;;10.43;75.06;101608.09;5001138;28;20408;-67
2022/05/13 02:27:16;;;;;;;5.30;2.05;;;;;;;10.41;75.07;101607.41;5000272;28;20052;-67
2022/05/13 02:29:41;;;;;;;6.93;2.10;;;;;;;10.35;75.48;101613.13;5001032;28;20129;-67
2022/05/13 02:32:07;;;;;;;10.80;2.20;;;;;;;10.33;74.68;101611.47;4999574;28;20041;-68
2022/05/13 02:34:36;;;;;;;6.30;2.13;;;;;;;10.37;74.71;101614.63;5002060;28;20077;-67
2022/05/13 02:37:02;;;;;;;5.65;2.30;;;;;;;10.33;74.42;101614.06;4999665;28;20045;-68
2022/05/13 02:39:28;;;;;;;8.90;1.85;;;;;;;10.27;74.16;101614.59;5017721;28;20121;-67
2022/05/13 02:41:53;;;;;;;11.30;2.55;;;;;;;10.26;74.01;101623.31;5000785;28;20029;-68
2022/05/13 02:44:18;;;;;;;7.35;2.00;;;;;;;10.28;73.73;101618.00;5002964;28;20080;-67
2022/05/13 02:46:44;;;;;;;7.22;2.15;;;;;;;10.20;73.99;101623.03;5002417;28;20049;-67
2022/05/13 02:49:10;;;;;;;4.15;1.55;;;;;;;10.17;74.48;101621.53;5002272;28;20128;-67
2022/05/13 02:51:35;;;;;;;7.05;2.10;;;;;;;10.08;74.96;101619.75;5001553;28;20034;-67
2022/05/13 02:54:01;;;;;;;12.13;2.17;;;;;;;10.08;74.63;101612.78;5004935;28;20568;-67
2022/05/13 02:56:26;;;;;;;8.73;1.70;;;;;;;10.10;74.41;101625.59;5000487;28;20034;-67
2022/05/13 02:58:51;;;;;;;12.77;2.20;;;;;;;10.06;74.37;101624.25;5001855;28;20029;-67
2022/05/13 03:01:19;;;;;;;3.38;1.65;;;;;;;10.01;74.72;101629.81;5014996;28;20034;-68
2022/05/13 03:03:46;;;;;;;12.45;2.22;;;;;;;9.98;75.17;101624.88;5000325;28;20530;-68
2022/05/13 03:06:12;;;;;;;5.32;1.50;;;;;;;9.96;74.64;101618.19;5016149;28;20033;-68
2022/05/13 03:08:38;;;;;;;7.55;2.05;;;;;;;9.91;74.64;101616.81;4999653;28;20037;-67
2022/05/13 03:11:04;;;;;;;3.88;1.55;;;;;;;9.98;74.07;101611.09;4999962;28;20384;-67
2022/05/13 03:13:30;;;;;;;9.88;1.70;;;;;;;9.96;74.25;101602.66;5002555;28;20078;-66
2022/05/13 03:16:14;;;;;;;9.68;1.80;;;;;;;9.89;74.35;101607.56;5000250;28;20107;-67
2022/05/13 03:18:39;;;;;;;11.70;2.17;;;;;;;9.88;74.47;101603.31;5000590;28;20034;-67
2022/05/13 03:21:05;;;;;;;3.10;1.42;;;;;;;9.82;74.99;101596.88;5001147;28;20038;-67
2022/05/13 03:23:31;;;;;;;4.43;1.60;;;;;;;9.82;75.21;101599.47;5002159;28;20053;-68
2022/05/13 03:25:56;;;;;;;7.15;2.05;;;;;;;9.81;74.75;101602.19;5012698;28;20099;-68
2022/05/13 03:28:22;;;;;;;6.47;1.40;;;;;;;9.75;75.07;101600.94;5000973;28;20038;-67
2022/05/13 03:30:50;;;;;;;6.15;1.58;;;;;;;9.71;75.57;101602.16;5000137;28;20061;-67
2022/05/13 03:33:19;;;;;;;13.93;2.67;;;;;;;9.74;75.70;101601.91;5013929;28;20515;-68
2022/05/13 03:35:45;;;;;;;11.00;1.92;;;;;;;9.66;76.19;101609.50;4999340;28;20069;-68
2022/05/13 03:38:11;;;;;;;3.95;1.70;;;;;;;9.70;75.91;101608.28;5001545;28;20476;-68
2022/05/13 03:40:37;;;;;;;7.63;1.85;;;;;;;9.65;75.68;101600.09;4997633;28;20041;-67
2022/05/13 03:43:04;;;;;;;10.63;1.83;;;;;;;9.70;75.83;101609.13;5016161;28;20401;-67
2022/05/13 03:45:32;;;;;;;6.43;1.50;;;;;;;9.66;75.96;101610.34;4999560;28;20099;-68
2022/05/13 03:48:00;;;;;;;9.55;1.85;;;;;;;9.71;75.91;101612.53;5000556;28;20108;-68
2022/05/13 03:50:27;;;;;;;6.68;1.80;;;;;;;9.65;76.18;101605.28;5000585;28;20046;-68
2022/05/13 03:52:53;;;;;;;4.10;1.23;;;;;;;9.63;76.57;101602.00;5014343;28;20092;-67
2022/05/13 03:55:19;;;;;;;13.27;1.88;;;;;;;9.60;76.80;101604.84;5003171;28;20034;-68
2022/05/13 03:57:44;;;;;;;6.18;1.30;;;;;;;9.60;76.48;101602.25;5001360;28;20041;-67
2022/05/13 04:00:15;;;;;;;12.55;1.90;;;;;;;9.61;76.74;101594.34;5000580;28;20038;-68
2022/05/13 04:02:40;;;;;;;4.38;1.60;;;;;;;9.60;76.71;101599.66;5001742;28;20034;-67
2022/05/13 04:10:35;;;;;;;12.15;1.88;;;;;;;9.58;77.14;101617.09;5014014;28;20034;-68
2022/05/13 04:18:35;;;;;;;8.98;1.40;;;;;;;9.68;77.04;101618.78;5002166;28;20132;-68
2022/05/13 04:21:04;;;;;;;3.65;1.20;;;;;;;9.66;77.29;101631.06;5028237;22;20041;-75
2022/05/13 04:23:30;;;;;;;10.82;3.00;;;;;;;9.67;77.59;101629.28;5031117;28;20043;-74
2022/05/13 04:25:56;;;;;;;4.40;1.50;;;;;;;9.70;77.72;101626.41;5036789;28;20084;-75
2022/05/13 04:28:21;;;;;;;9.13;1.67;;;;;;;9.75;77.50;101629.44;5019971;28;20049;-75
2022/05/13 04:30:47;;;;;;;9.10;2.78;;;;;;;9.87;77.36;101628.41;5022363;28;20040;-74
2022/05/13 04:33:14;;;;;;;11.45;2.40;;;;;;;9.88;77.40;101637.00;5038618;28;20038;-76
2022/05/13 04:35:40;;;;;;;12.43;1.75;;;;;;;9.91;77.10;101628.97;5021993;28;20108;-75
2022/05/13 04:38:06;;;;;;;8.15;2.00;;;;;;;9.89;77.46;101633.47;5021403;28;20387;-76
2022/05/13 04:40:31;;;;;;;9.63;1.90;;;;;;;9.88;77.53;101629.22;5022965;28;20494;-75
2022/05/13 04:42:57;;;;;;;6.85;1.65;;;;;;;9.91;77.08;101634.97;5022875;28;20041;-75
2022/05/13 04:45:26;;;;;;;11.48;2.00;;;;;;;9.89;77.11;101630.88;5018093;28;20044;-76
2022/05/13 04:48:18;;;;;;;5.57;1.83;;;;;;;9.91;77.55;101636.72;5022063;28;20038;-75
2022/05/13 04:50:52;;;;;;;9.77;2.08;;;;;;;9.99;77.61;101643.84;5021087;28;20030;-76
2022/05/13 04:53:25;;;;;;;8.10;2.00;;;;;;;9.98;77.82;101637.00;5020218;28;20036;-76
2022/05/13 04:55:52;;;;;;;9.35;2.08;;;;;;;9.94;78.06;101639.03;5021572;28;20037;-75
2022/05/13 04:58:18;;;;;;;11.88;2.03;;;;;;;9.94;77.56;101634.72;5022214;28;20387;-75
2022/05/13 05:00:44;;;;;;;7.32;1.80;;;;;;;10.05;77.80;101640.72;5023663;28;20021;-76
2022/05/13 05:03:10;;;;;;;5.30;1.52;;;;;;;10.08;77.77;101645.66;5023740;28;20033;-75
2022/05/13 05:05:36;;;;;;;11.45;1.95;;;;;;;10.22;77.28;101641.84;5026730;28;20808;-75
2022/05/13 05:08:01;;;;;;;12.85;2.22;;;;;;;10.32;76.79;101647.91;5020003;28;20444;-75
2022/05/13 05:10:27;;;;;;;11.95;2.92;;;;;;;10.44;76.56;101644.25;5027047;28;20029;-76
2022/05/13 05:12:54;;;;;;;9.88;1.90;;;;;;;10.50;76.42;101645.50;5021508;28;20516;-76
2022/05/13 05:15:20;;;;;;;10.10;2.03;;;;;;;10.63;76.18;101651.22;5026435;28;20040;-75
2022/05/13 05:17:45;;;;;;;13.88;2.33;;;;;;;10.67;75.64;101668.16;5025142;28;20501;-75
2022/05/13 05:20:11;;;;;;;14.52;2.47;;;;;;;10.67;76.16;101656.97;5026399;28;20052;-74
2022/05/13 05:22:37;;;;;;;30.75;2.92;;;;;;;10.62;76.94;101672.09;5024761;28;20561;-75
2022/05/13 05:25:04;;;;;;;8.43;2.50;;;;;;;10.61;76.80;101679.09;5024904;28;20088;-75
2022/05/13 05:27:30;;;;;;;8.00;2.38;;;;;;;10.81;75.87;101681.69;5027219;28;20156;-76
2022/05/13 05:29:55;;;;;;;9.57;2.10;;;;;;;10.78;75.48;101671.59;5037109;28;20050;-74
2022/05/13 05:32:21;;;;;;;13.13;2.60;;;;;;;10.85;75.42;101675.25;5042838;28;20033;-77
2022/05/13 05:34:46;;;;;;;12.98;2.53;;;;;;;10.82;75.52;101683.34;5006772;28;20128;-74
2022/05/13 05:37:12;;;;;;;11.77;2.97;;;;;;;10.93;75.50;101678.00;5035588;28;20579;-76
2022/05/13 05:39:37;;;;;;;16.10;2.63;;;;;;;10.96;74.80;101677.72;5038176;28;20052;-75
2022/05/13 05:42:03;;;;;;;11.27;2.00;;;;;;;10.94;75.88;101682.22;5022582;28;20395;-74
2022/05/13 05:44:29;;;;;;;14.98;3.20;;;;;;;11.12;75.05;101681.56;5038505;28;20083;-77
2022/05/13 05:46:54;;;;;;;4.38;1.77;;;;;;;11.37;74.14;101680.97;5038177;28;20041;-75
2022/05/13 05:49:19;;;;;;;7.82;2.13;;;;;;;11.65;72.61;101673.25;5022394;28;20037;-74
2022/05/13 05:51:45;;;;;;;13.15;2.70;;;;;;;11.97;71.18;101677.25;5036914;28;20406;-77
2022/05/13 05:57:14;;;;;;;12.18;2.35;;;;;;;12.76;68.35;101681.84;5004470;28;20609;-74
2022/05/13 05:59:41;;;;;;;14.25;2.15;;;;;;;13.08;67.52;101684.88;5009671;28;20033;-75
2022/05/13 06:02:07;;;;;;;12.43;2.80;;;;;;;13.19;67.12;101679.44;5005768;28;20037;-76
2022/05/13 06:04:33;;;;;;;11.65;2.42;;;;;;;13.63;65.39;101685.44;5023673;28;20029;-74
2022/05/13 06:06:59;;;;;;;10.20;2.20;;;;;;;13.84;64.25;101684.22;5039074;28;20065;-75
2022/05/13 06:09:25;;;;;;;13.95;2.33;;;;;;;14.08;63.24;101683.53;5024528;28;20045;-75
2022/05/13 06:11:50;;;;;;;9.48;2.22;;;;;;;14.54;62.19;101685.75;5003678;28;20037;-74
2022/05/13 06:14:16;;;;;;;10.73;2.13;;;;;;;14.57;60.86;101688.91;5025378;28;20645;-75
2022/05/13 06:16:42;;;;;;;12.95;1.95;;;;;;;14.73;60.71;101689.91;5026617;28;20451;-75
2022/05/13 06:19:07;;;;;;;12.98;3.00;;;;;;;15.02;60.90;101704.28;5039011;28;20037;-76
2022/05/13 06:21:35;;;;;;;10.52;1.80;;;;;;;15.33;58.94;101696.59;5004887;28;20030;-75
2022/05/13 06:24:01;;;;;;;7.93;1.55;;;;;;;15.53;58.87;101694.44;5004177;28;20105;-75
2022/05/13 06:26:27;;;;;;;11.13;2.30;;;;;;;15.95;59.00;101701.19;5025785;28;20391;-74
2022/05/13 06:28:53;;;;;;;9.98;1.95;;;;;;;15.88;58.41;101697.63;5027977;28;20040;-75
2022/05/13 06:31:19;;;;;;;4.38;1.33;;;;;;;15.67;58.86;101706.84;5022321;28;20080;-75
2022/05/13 06:33:46;;;;;;;8.27;2.35;;;;;;;15.23;59.33;101716.84;5037767;28;20026;-75
2022/05/13 06:36:13;;;;;;;10.95;1.98;;;;;;;15.40;59.13;101710.63;5024012;28;20033;-75
2022/05/13 06:38:39;;;;;;;9.93;2.08;;;;;;;15.57;59.70;101719.25;5026638;28;20695;-75
2022/05/13 06:41:04;;;;;;;10.35;2.22;;;;;;;15.40;59.59;101715.84;5022844;28;20053;-76
2022/05/13 06:43:30;;;;;;;7.28;1.90;;;;;;;15.31;59.90;101722.91;5021251;28;20042;-75
2022/05/13 06:45:56;;;;;;;18.88;6.22;;;;;;;15.22;60.07;101726.50;5021428;28;20029;-75
2022/05/13 06:48:22;;;;;;;7.72;2.03;;;;;;;15.07;60.18;101725.50;5021526;28;20033;-75
2022/05/13 06:50:49;;;;;;;14.23;1.90;;;;;;;15.04;59.55;101731.88;5021975;28;20071;-77
2022/05/13 06:53:16;;;;;;;10.38;1.67;;;;;;;15.17;59.88;101729.59;5022896;28;20540;-75
2022/05/13 06:55:43;;;;;;;9.05;1.85;;;;;;;15.30;59.76;101731.72;5022831;28;20040;-75
2022/05/13 06:58:09;;;;;;;8.82;2.08;;;;;;;15.35;58.65;101732.03;5021589;28;20064;-76
2022/05/13 07:00:34;;;;;;;8.13;1.80;;;;;;;15.36;59.16;101735.47;5024187;28;20084;-75
2022/05/13 07:03:00;;;;;;;7.60;1.70;;;;;;;15.27;60.37;101744.28;5023505;28;20028;-75
2022/05/13 07:05:26;;;;;;;8.20;1.95;;;;;;;15.38;59.98;101738.72;5020519;28;20555;-75
2022/05/13 07:07:52;;;;;;;18.80;2.63;;;;;;;15.37;60.77;101748.38;5020615;28;20041;-75
2022/05/13 07:10:18;;;;;;;11.50;2.67;;;;;;;15.32;60.00;101750.66;5008375;28;20099;-75
2022/05/13 07:12:43;;;;;;;11.77;2.08;;;;;;;15.30;59.27;101757.84;5039097;28;20039;-76
2022/05/13 07:15:12;;;;;;;11.55;1.95;;;;;;;15.48;59.10;101754.22;5039193;28;20030;-75
2022/05/13 07:17:38;;;;;;;11.80;2.88;;;;;;;15.70;57.87;101758.75;5022108;28;20033;-76
2022/05/13 07:20:05;;;;;;;18.65;2.78;;;;;;;15.75;58.17;101755.69;5021751;28;20041;-76
2022/05/13 07:22:30;;;;;;;12.07;2.03;;;;;;;15.90;58.44;101761.88;5035991;28;20069;-76
2022/05/13 07:24:56;;;;;;;16.63;3.88;;;;;;;15.91;58.45;101753.03;5023570;28;20032;-76
2022/05/13 07:27:21;;;;;;;8.80;2.22;;;;;;;16.04;59.12;101749.06;5021655;28;20044;-76
2022/05/13 07:29:47;;;;;;;9.85;1.92;;;;;;;15.91;57.62;101757.44;5022528;28;20112;-76
2022/05/13 07:32:12;;;;;;;8.27;2.08;;;;;;;15.91;57.94;101758.25;5039174;28;20034;-76
2022/05/13 07:34:38;;;;;;;16.70;2.10;;;;;;;15.76;58.19;101765.16;5024864;28;20033;-76
2022/05/13 07:37:04;;;;;;;7.20;1.77;;;;;;;15.74;58.73;101754.88;5020802;28;20525;-76
2022/05/13 07:42:14;;;;;;;11.60;2.45;;;;;;;16.25;57.56;101759.78;5024393;28;20033;-76
2022/05/13 07:44:39;;;;;;;9.75;1.92;;;;;;;16.25;57.87;101759.78;5005654;28;20033;-75
2022/05/13 07:47:07;;;;;;;9.18;2.05;;;;;;;16.38;57.92;101761.03;5018434;28;20406;-75
2022/05/13 07:49:34;;;;;;;11.15;1.30;;;;;;;16.38;57.42;101766.28;5018425;28;20129;-75
2022/05/13 07:51:59;;;;;;;8.57;2.67;;;;;;;16.42;57.26;101765.75;5036907;28;20034;-75
2022/05/13 07:54:25;;;;;;;11.50;2.00;;;;;;;16.49;56.45;101761.47;5020018;28;20028;-75
2022/05/13 07:56:50;;;;;;;8.95;1.50;;;;;;;16.50;55.92;101768.34;5020998;28;20057;-75
2022/05/13 07:59:16;;;;;;;10.00;2.53;;;;;;;16.63;55.28;101765.16;5019760;28;20409;-74
2022/05/13 08:01:42;;;;;;;11.73;1.98;;;;;;;16.63;56.24;101761.72;5028129;28;20041;-76
2022/05/13 08:04:07;;;;;;;10.68;2.65;;;;;;;16.84;55.78;101759.34;5038740;28;21328;-75
2022/05/13 08:06:32;;;;;;;12.77;2.80;;;;;;;17.51;55.04;101765.66;5020185;28;20033;-76
2022/05/13 08:08:58;;;;;;;16.83;2.35;;;;;;;17.74;52.89;101765.59;5037128;28;20048;-75
2022/05/13 08:11:29;;;;;;;9.77;1.90;;;;;;;17.90;53.43;101759.41;5017983;28;20029;-75
2022/05/13 08:13:56;;;;;;;13.05;1.92;;;;;;;18.02;53.21;101768.44;5002487;28;20079;-76
2022/05/13 08:16:27;;;;;;;13.00;1.90;;;;;;;18.22;51.96;101762.66;5019267;28;20401;-76
2022/05/13 08:18:53;;;;;;;6.32;1.75;;;;;;;18.13;52.02;101769.78;5038191;28;20049;-76
2022/05/13 08:21:20;;;;;;;6.82;1.95;;;;;;;18.50;52.04;101765.41;5039187;28;20025;-75
2022/05/13 08:23:45;;;;;;;8.10;1.63;;;;;;;18.50;51.34;101765.41;5004690;28;20087;-75
2022/05/13 08:26:12;;;;;;;18.38;2.28;;;;;;;18.62;50.70;101765.72;5038218;28;20034;-76
2022/05/13 08:28:38;;;;;;;9.23;2.35;;;;;;;18.99;49.37;101763.91;5008569;28;20041;-76
2022/05/13 08:31:04;;;;;;;12.48;2.85;;;;;;;19.16;49.98;101767.88;5021472;28;20064;-75
2022/05/13 08:33:30;;;;;;;7.70;1.63;;;;;;;19.40;50.20;101756.16;5020449;28;20569;-76
2022/05/13 08:35:58;;;;;;;9.43;1.83;;;;;;;19.67;49.69;101764.22;5038114;28;20072;-76
2022/05/13 08:38:26;;;;;;;12.18;2.28;;;;;;;19.65;48.44;101768.84;5010128;28;20039;-75
2022/05/13 08:40:58;;;;;;;10.38;1.90;;;;;;;19.56;49.03;101762.94;5025492;28;20093;-76
2022/05/13 08:43:37;;;;;;;10.27;2.97;;;;;;;19.76;49.66;101772.78;5027408;28;20037;-76
2022/05/13 08:46:24;;;;;;;10.15;1.80;;;;;;;19.74;48.39;101780.06;5039511;28;20039;-76
2022/05/13 08:49:14;;;;;;;7.45;2.22;;;;;;;19.80;48.87;101771.41;5036523;28;20041;-76
2022/05/13 08:51:48;;;;;;;14.35;2.13;;;;;;;20.10;48.55;101779.03;5028204;28;20095;-76
2022/05/13 08:54:21;;;;;;;12.13;2.30;;;;;;;20.26;48.14;101767.38;5025155;28;20043;-75
2022/05/13 08:56:48;;;;;;;;;;;;;;;20.23;46.83;101779.13;5024672;28;20029;-76
2022/05/13 08:59:25;;;;;;;10.13;2.58;;;;;;;19.98;47.59;101773.53;5038694;28;20062;-76
2022/05/13 09:02:14;;;;;;;9.13;1.70;;;;;;;20.45;49.07;101774.53;5041248;28;20030;-75
2022/05/13 09:04:47;;;;;;;6.80;1.80;;;;;;;20.65;46.80;101773.81;5036504;28;20045;-77
2022/05/13 09:07:16;;;;;;;10.52;2.10;;;;;;;20.54;46.72;101764.63;5034761;28;20049;-75
2022/05/13 09:09:45;;;;;;;9.52;2.10;;;;;;;20.91;46.73;101775.69;5038847;28;20620;-76
2022/05/13 09:12:22;;;;;;;10.50;1.73;;;;;;;21.19;47.19;101778.94;5021771;28;20087;-76
2022/05/13 09:15:14;;;;;;;5.80;1.65;;;;;;;21.51;45.69;101770.41;5021863;28;20110;-76
2022/05/13 09:18:18;;;;;;;5.22;1.25;;;;;;;21.64;44.53;101766.94;5036673;28;20044;-76
2022/05/13 09:20:50;;;;;;;10.15;1.63;;;;;;;21.13;44.90;101771.00;5015631;28;20482;-77
2022/05/13 09:23:17;;;;;;;6.93;2.15;;;;;;;21.01;44.53;101784.00;5038242;28;20175;-76
2022/05/13 09:25:58;;;;;;;6.85;1.70;;;;;;;21.18;45.08;101769.38;5020864;28;20032;-76
2022/05/13 09:28:26;;;;;;;9.15;2.60;;;;;;;21.40;45.79;101766.56;5026749;28;20037;-75
2022/05/13 09:30:58;;;;;;;7.28;2.03;;;;;;;21.74;43.49;101762.06;5020013;28;20383;-75
2022/05/13 09:33:26;;;;;;;8.68;1.85;;;;;;;21.76;44.50;101762.66;5037872;28;20123;-78
2022/05/13 09:35:55;;;;;;;8.55;1.55;;;;;;;21.69;44.17;101764.50;5023933;28;20025;-76
2022/05/13 09:38:28;;;;;;;7.55;2.25;;;;;;;21.86;44.00;101759.59;5024341;28;20596;-76
2022/05/13 09:40:57;;;;;;;5.35;1.48;;;;;;;21.74;43.34;101768.13;5024668;28;20383;-76
2022/05/13 09:43:50;;;;;;;8.77;1.92;;;;;;;22.05;40.27;101752.59;5041337;28;20078;-76
2022/05/13 09:46:33;;;;;;;6.30;1.45;;;;;;;22.28;41.51;101765.34;5023656;28;20072;-76
2022/05/13 09:49:05;;;;;;;10.18;1.65;;;;;;;22.03;42.00;101770.50;5022941;28;20057;-76
2022/05/13 09:51:57;;;;;;;12.13;1.60;;;;;;;21.46;41.81;101772.88;5024175;28;20434;-76
2022/05/13 09:54:33;;;;;;;6.65;1.48;;;;;;;21.53;43.81;101773.66;5023232;28;20048;-76
2022/05/13 09:57:10;;;;;;;5.93;1.58;;;;;;;21.44;44.88;101766.97;5040098;28;20496;-76
2022/05/13 09:59:42;;;;;;;7.80;1.50;;;;;;;21.00;42.20;101782.34;5009617;28;20095;-76
2022/05/13 10:02:36;;;;;;;6.38;2.05;;;;;;;21.15;43.03;101775.09;5038557;28;20030;-77
2022/05/13 10:05:19;;;;;;;7.82;2.03;;;;;;;21.10;40.91;101771.44;5038604;28;20283;-77
2022/05/13 10:07:50;;;;;;;6.15;1.67;;;;;;;21.51;40.87;101770.41;5022745;28;20048;-77
2022/05/13 10:15:57;;;;;;;7.20;1.60;;;;;;;20.81;41.91;101773.41;5023426;28;20112;-76
2022/05/13 10:18:32;;;;;;;3.28;1.08;;;;;;;20.76;42.47;101779.31;5008167;28;20041;-76
2022/05/13 10:21:24;;;;;;;6.88;1.52;;;;;;;20.49;42.21;101780.22;5021461;28;20079;-75
2022/05/13 10:24:21;;;;;;;3.75;1.13;;;;;;;20.08;41.94;101788.94;5016020;28;20095;-75
2022/05/13 10:26:48;;;;;;;5.95;0.90;;;;;;;20.04;44.06;101783.25;5037664;28;20041;-76
2022/05/13 10:29:33;;;;;;;6.65;2.22;;;;;;;20.46;42.95;101785.88;5023525;28;20041;-75
2022/05/13 10:32:01;;;;;;;10.60;1.60;;;;;;;20.33;42.73;101784.81;5036797;28;20045;-76
2022/05/13 10:34:49;;;;;;;7.47;1.67;;;;;;;20.52;43.62;101779.81;5038885;28;20044;-77
2022/05/13 10:37:26;;;;;;;5.05;1.10;;;;;;;20.33;43.98;101794.53;5021575;28;20037;-76
2022/05/13 10:40:02;;;;;;;3.42;1.10;;;;;;;20.22;43.67;101788.00;5023359;28;20462;-76
2022/05/13 10:42:41;;;;;;;6.68;1.75;;;;;;;20.16;43.41;101784.34;5002962;28;20129;-76
2022/05/13 10:45:15;;;;;;;7.22;1.17;;;;;;;20.41;42.83;101786.47;5020416;28;20026;-76
2022/05/13 10:47:45;;;;;;;5.72;1.20;;;;;;;20.56;43.54;101779.22;5036169;28;20369;-77
2022/05/13 10:50:17;;;;;;;10.57;2.08;;;;;;;20.45;44.29;101784.25;5038490;28;20041;-75
2022/05/13 10:52:58;;;;;;;7.55;1.42;;;;;;;20.71;44.32;101783.53;5040118;28;20068;-76
2022/05/13 10:55:33;;;;;;;4.22;1.13;;;;;;;20.52;42.73;101787.72;5020773;28;20680;-76
2022/05/13 10:57:59;;;;;;;5.40;1.00;;;;;;;20.68;45.05;101782.13;5005923;28;20129;-76
2022/05/13 11:00:48;;;;;;;4.95;1.70;;;;;;;20.98;42.78;101772.03;5022791;28;20171;-76
2022/05/13 11:03:41;;;;;;;6.47;1.25;;;;;;;21.26;42.52;101786.03;5038918;28;20120;-75
2022/05/13 11:06:23;;;;;;;6.53;1.02;;;;;;;21.04;40.64;101772.22;5037488;28;20045;-76
2022/05/13 11:09:14;;;;;;;7.13;1.23;;;;;;;21.10;42.99;101774.88;5036266;28;20383;-76
2022/05/13 11:11:42;;;;;;;6.22;1.33;;;;;;;20.85;41.59;101769.38;5021200;28;20069;-76
2022/05/13 11:14:32;;;;;;;6.50;1.15;;;;;;;20.69;43.49;101781.09;5035834;28;20040;-76
2022/05/13 11:17:14;;;;;;;9.07;1.20;;;;;;;20.66;42.45;101783.31;5034695;28;20045;-76
2022/05/13 11:20:01;;;;;;;6.53;0.88;;;;;;;20.86;42.61;101772.84;5019240;28;20069;-76
2022/05/13 11:22:30;;;;;;;9.90;1.98;;;;;;;21.23;43.14;101765.31;5018856;28;20033;-75
2022/05/13 11:28:32;;;;;;;10.98;1.30;;;;;;;21.05;41.32;101769.38;5022053;28;20030;-76
2022/05/13 11:31:37;;;;;;;8.65;1.35;;;;;;;21.04;42.02;101770.41;5033026;28;20072;-76
2022/05/13 11:34:30;;;;;;;7.05;1.23;;;;;;;21.22;41.85;101769.78;5022892;28;20093;-75
2022/05/13 11:37:02;;;;;;;4.03;1.17;;;;;;;21.64;41.73;101761.66;5019276;28;20121;-76
2022/05/13 11:40:05;;;;;;;6.00;1.10;;;;;;;21.82;40.79;101764.47;5039052;28;20057;-76
2022/05/13 11:45:56;;;;;;;8.57;1.20;;;;;;;21.76;40.25;101774.03;5021583;28;20040;-76
2022/05/13 11:48:29;;;;;;;7.38;1.17;;;;;;;21.82;40.46;101768.94;5023299;28;20486;-76
2022/05/13 11:51:34;;;;;;;3.30;0.93;;;;;;;21.73;41.55;101779.69;5032718;28;20029;-76
2022/05/13 11:53:59;;;;;;;6.28;1.55;;;;;;;21.48;41.25;101778.75;4938337;28;20061;-76
2022/05/13 11:56:25;;;;;;;7.72;1.90;;;;;;;21.78;40.65;101776.47;5001832;28;20739;-76
2022/05/13 11:58:54;;;;;;;4.05;1.27;;;;;;;21.56;41.06;101767.97;5039127;28;20079;-76
2022/05/13 12:01:37;;;;;;;3.08;1.25;;;;;;;21.53;41.13;101781.56;5022240;28;20033;-76
2022/05/13 12:04:27;;;;;;;7.53;1.20;;;;;;;21.60;41.13;101787.66;5018040;28;20116;-76
2022/05/13 12:06:59;;;;;;;5.63;1.25;;;;;;;21.44;39.75;101780.16;5007699;28;20533;-75
2022/05/13 12:09:24;;;;;;;9.45;2.22;;;;;;;21.21;40.42;101770.84;5041614;28;20151;-76